Time;durP1;ratioP1;P1;durP2;ratioP2;P2;SDS_P1;SDS_P2;PMS_P1;PMS_P2;Temp;Humidity;BMP_temperature;BMP_pressure;BME280_temperature;BME280_humidity;BME280_pressure;Samples;Min_cycle;Max_cycle;Signal;HPM_P1;HPM_P2
2022/01/23 00:00:58;;;;;;;8.00;7.27;;;;;;;-1.23;85.87;99973.38;5094484;28;20434;-62
2022/01/23 00:03:25;;;;;;;7.73;6.90;;;;;;;-1.28;87.34;99980.72;5094581;28;20903;-62
2022/01/23 00:05:53;;;;;;;8.93;7.97;;;;;;;-1.27;87.27;99982.38;5094070;28;20429;-62
2022/01/23 00:08:21;;;;;;;7.33;6.90;;;;;;;-1.27;87.87;99984.97;5094106;28;20879;-62
2022/01/23 00:10:51;;;;;;;9.57;8.50;;;;;;;-1.35;88.26;99985.53;5093910;28;20469;-62
2022/01/23 00:13:26;;;;;;;8.20;7.50;;;;;;;-1.42;88.67;99986.09;5093244;28;20444;-62
2022/01/23 00:18:37;;;;;;;9.87;8.30;;;;;;;-1.46;88.11;99993.25;5093685;28;21004;-63
2022/01/23 00:21:04;;;;;;;9.37;8.57;;;;;;;-1.43;88.28;99997.44;5093864;28;20502;-63
2022/01/23 00:30:18;;;;;;;8.53;7.83;;;;;;;-1.44;88.67;100003.56;5093425;28;20940;-62
2022/01/23 00:31:48;;;;;;;7.50;6.80;;;;;;;-1.70;88.11;99996.78;5093446;28;20464;-62
2022/01/23 00:34:14;;;;;;;10.67;8.23;;;;;;;-1.66;87.25;100011.25;5093344;28;20473;-62
2022/01/23 00:36:41;;;;;;;8.37;7.57;;;;;;;-1.77;86.69;100014.59;5093355;28;21001;-62
2022/01/23 00:39:09;;;;;;;10.00;7.90;;;;;;;-1.89;85.82;100015.44;5093081;28;20880;-62
2022/01/23 00:41:36;;;;;;;7.57;7.00;;;;;;;-1.86;85.80;100014.38;5093230;28;20437;-62
2022/01/23 00:44:03;;;;;;;6.43;6.03;;;;;;;-1.81;84.26;100022.72;5093528;28;20441;-62
2022/01/23 00:46:33;;;;;;;7.53;6.93;;;;;;;-1.77;82.78;100024.16;5093279;28;21035;-62
2022/01/23 00:49:24;;;;;;;6.97;6.47;;;;;;;-1.79;81.94;100026.88;5093618;28;20815;-62
2022/01/23 00:51:51;;;;;;;7.13;6.60;;;;;;;-1.74;80.74;100036.97;5092944;28;20980;-62
2022/01/23 00:54:20;;;;;;;7.10;6.50;;;;;;;-1.71;79.74;100034.16;5092912;28;20445;-63
2022/01/23 00:56:47;;;;;;;7.57;6.97;;;;;;;-1.68;79.22;100036.53;5092892;28;20817;-63
2022/01/23 00:59:14;;;;;;;6.50;6.00;;;;;;;-1.71;78.64;100034.97;5093384;28;20445;-62
2022/01/23 01:01:41;;;;;;;5.83;5.53;;;;;;;-1.67;78.34;100031.22;5092576;28;20444;-62
2022/01/23 01:04:07;;;;;;;6.37;5.73;;;;;;;-1.71;78.27;100023.75;5092937;28;20441;-62
2022/01/23 01:06:34;;;;;;;6.40;6.00;;;;;;;-1.72;78.12;100032.50;5092998;28;20437;-63
2022/01/23 01:09:02;;;;;;;6.70;6.20;;;;;;;-1.75;77.82;100032.72;5092569;28;20433;-63
2022/01/23 01:14:26;;;;;;;5.77;5.37;;;;;;;-1.73;77.09;100049.91;5079706;28;20433;-62
2022/01/23 01:17:00;;;;;;;6.30;5.80;;;;;;;-1.76;77.65;100046.69;5093836;28;20472;-62
2022/01/23 01:30:33;;;;;;;7.17;6.57;;;;;;;-2.04;78.07;100044.28;5090575;28;20443;-63
2022/01/23 01:33:10;;;;;;;7.37;6.77;;;;;;;-2.03;77.45;100033.78;5092495;28;20433;-63
2022/01/23 01:35:41;;;;;;;7.17;6.47;;;;;;;-2.08;76.89;100042.81;5092343;28;20565;-62
2022/01/23 01:38:08;;;;;;;6.87;6.37;;;;;;;-2.09;76.46;100048.94;5092248;28;20476;-62
2022/01/23 01:40:36;;;;;;;6.43;5.83;;;;;;;-2.07;76.19;100041.88;5091966;28;20437;-63
2022/01/23 01:43:05;;;;;;;7.23;6.70;;;;;;;-2.05;75.95;100051.25;5092539;28;20437;-63
2022/01/23 01:45:34;;;;;;;7.03;6.30;;;;;;;-1.99;75.57;100050.00;5092388;28;20498;-62
2022/01/23 01:48:02;;;;;;;7.03;6.33;;;;;;;-1.94;74.80;100053.13;5092548;28;20482;-62
2022/01/23 01:50:30;;;;;;;6.23;5.67;;;;;;;-1.94;75.41;100063.53;5091917;28;20433;-62
2022/01/23 01:52:57;;;;;;;6.90;6.40;;;;;;;-2.09;75.28;100043.75;5092046;28;20454;-62
2022/01/23 01:55:27;;;;;;;6.87;6.33;;;;;;;-1.89;74.90;100067.50;5092289;28;20440;-61
2022/01/23 01:58:01;;;;;;;6.13;5.63;;;;;;;-1.88;74.29;100068.34;5092442;28;20435;-62
2022/01/23 02:00:46;;;;;;;6.53;6.03;;;;;;;-1.78;73.38;100074.56;5092349;28;20487;-62
2022/01/23 02:08:44;;;;;;;6.80;6.47;;;;;;;-1.77;72.03;100069.25;5092021;28;20444;-62
2022/01/23 02:11:15;;;;;;;7.33;6.70;;;;;;;-1.81;71.71;100065.22;5091759;28;20538;-63
2022/01/23 02:13:47;;;;;;;7.33;6.63;;;;;;;-1.70;71.64;100061.88;5092364;28;20429;-62
2022/01/23 02:16:42;;;;;;;6.80;6.20;;;;;;;-1.74;71.98;100063.00;5091719;28;20432;-62
2022/01/23 02:52:09;;;;;;;7.70;7.10;;;;;;;-2.04;73.47;100057.28;5095294;28;20479;-62
2022/01/23 02:54:56;;;;;;;8.73;6.33;;;;;;;-2.09;74.07;100055.00;5095277;28;20511;-62
2022/01/23 02:57:36;;;;;;;6.53;6.03;;;;;;;-2.10;74.41;100062.91;5095301;28;20958;-62
2022/01/23 03:00:11;;;;;;;6.50;6.00;;;;;;;-2.11;74.03;100061.25;5095851;28;20436;-62
2022/01/23 03:02:42;;;;;;;6.63;6.13;;;;;;;-2.13;74.34;100063.94;5095341;28;20890;-63
2022/01/23 03:05:12;;;;;;;7.23;6.53;;;;;;;-2.09;73.85;100064.56;5095031;28;21002;-62
2022/01/23 03:07:56;;;;;;;8.77;6.17;;;;;;;-2.07;73.73;100067.91;5095137;28;20440;-62
2022/01/23 03:10:27;;;;;;;6.03;5.53;;;;;;;-2.08;73.23;100072.25;5095036;28;20441;-62
2022/01/23 03:24:19;;;;;;;6.63;5.70;;;;;;;-2.13;72.40;100076.09;5094513;28;20482;-62
2022/01/23 03:27:04;;;;;;;5.93;5.50;;;;;;;-2.13;71.76;100083.91;5094726;28;20937;-62
2022/01/23 03:29:51;;;;;;;5.33;4.90;;;;;;;-2.12;71.40;100077.78;5095931;28;20841;-62
2022/01/23 03:32:23;;;;;;;6.03;5.53;;;;;;;-2.15;71.75;100075.38;5094491;28;20987;-62
2022/01/23 03:34:50;;;;;;;9.27;6.13;;;;;;;-2.05;71.79;100076.44;5094778;28;20481;-62
2022/01/23 03:37:17;;;;;;;5.70;5.37;;;;;;;-1.99;71.55;100081.22;5094202;28;20486;-62
2022/01/23 03:39:43;;;;;;;8.20;5.20;;;;;;;-2.01;71.57;100086.53;5094529;28;20441;-63
2022/01/23 03:42:12;;;;;;;5.07;4.70;;;;;;;-1.93;71.40;100084.25;5094464;28;20873;-63
2022/01/23 03:44:42;;;;;;;5.40;5.00;;;;;;;-2.03;70.97;100084.97;5094066;28;20487;-62
2022/01/23 03:47:21;;;;;;;5.80;5.40;;;;;;;-1.94;70.86;100076.53;5094118;28;20430;-63
2022/01/23 03:49:48;;;;;;;4.83;4.63;;;;;;;-1.81;70.45;100091.25;5092990;28;20446;-62
2022/01/23 03:52:17;;;;;;;5.77;5.27;;;;;;;-1.76;69.43;100094.34;5094655;28;20476;-62
2022/01/23 03:54:44;;;;;;;4.87;4.57;;;;;;;-1.77;69.34;100102.25;5094746;28;20447;-62
2022/01/23 03:57:12;;;;;;;4.70;4.23;;;;;;;-1.86;69.63;100095.09;5094404;28;20871;-63
2022/01/23 03:59:39;;;;;;;4.33;4.03;;;;;;;-1.82;69.78;100102.59;5094551;28;20437;-63
2022/01/23 04:02:06;;;;;;;4.40;4.20;;;;;;;-1.86;69.13;100100.28;5094030;28;20445;-62
2022/01/23 04:04:40;;;;;;;4.60;4.30;;;;;;;-1.75;69.32;100100.41;5093665;28;20945;-62
2022/01/23 04:07:09;;;;;;;6.27;4.90;;;;;;;-1.80;69.35;100103.31;5093850;28;20816;-62
2022/01/23 04:09:37;;;;;;;4.60;4.33;;;;;;;-1.91;70.09;100092.78;5094206;28;20443;-63
2022/01/23 04:12:05;;;;;;;6.07;5.57;;;;;;;-1.91;69.96;100095.38;5093757;28;20926;-62
2022/01/23 04:14:35;;;;;;;4.87;4.47;;;;;;;-1.88;69.53;100095.19;5094044;28;20444;-63
2022/01/23 04:17:38;;;;;;;5.33;4.90;;;;;;;-1.84;69.17;100095.81;5094243;28;20512;-62
2022/01/23 04:20:21;;;;;;;5.03;4.73;;;;;;;-1.86;69.45;100092.47;5093939;28;20429;-62
2022/01/23 04:33:58;;;;;;;5.97;5.53;;;;;;;-1.72;70.41;100108.03;5093772;28;20535;-62
2022/01/23 05:01:12;;;;;;;5.77;4.97;;;;;;;-1.65;69.29;100133.53;5066241;28;21028;-62
2022/01/23 05:04:11;;;;;;;6.37;5.80;;;;;;;-1.52;69.12;100134.34;5092998;28;20514;-64
2022/01/23 05:06:42;;;;;;;5.43;5.03;;;;;;;-1.47;68.96;100147.06;5093051;28;20448;-62
2022/01/23 05:09:10;;;;;;;4.87;4.57;;;;;;;-1.38;67.48;100151.66;5092869;28;20963;-62
2022/01/23 05:11:41;;;;;;;5.83;4.80;;;;;;;-1.33;67.81;100150.41;5093285;28;20472;-62
2022/01/23 05:14:07;;;;;;;5.47;4.93;;;;;;;-1.41;67.74;100151.84;5093060;28;20425;-62
2022/01/23 05:16:35;;;;;;;5.63;4.80;;;;;;;-1.48;68.59;100155.81;5092356;28;20471;-62
2022/01/23 05:19:04;;;;;;;5.30;4.90;;;;;;;-1.51;68.76;100161.25;5093049;28;20444;-62
2022/01/23 05:21:52;;;;;;;8.00;5.40;;;;;;;-1.52;69.07;100169.97;5092335;28;20437;-62
2022/01/23 05:24:23;;;;;;;5.63;5.10;;;;;;;-1.45;68.69;100166.03;5092359;28;20520;-62
2022/01/23 05:26:50;;;;;;;6.47;5.83;;;;;;;-1.50;68.91;100173.31;5092711;28;20433;-62
2022/01/23 05:29:17;;;;;;;5.63;5.33;;;;;;;-1.55;69.00;100175.41;5092403;28;20597;-63
2022/01/23 05:31:44;;;;;;;5.20;4.80;;;;;;;-1.52;68.96;100175.19;5092210;28;20480;-63
2022/01/23 05:34:12;;;;;;;7.00;6.50;;;;;;;-1.57;68.96;100172.06;5092724;28;20484;-62
2022/01/23 05:36:39;;;;;;;6.07;5.67;;;;;;;-1.67;69.41;100171.03;5092398;28;20437;-62
2022/01/23 05:39:06;;;;;;;6.43;5.63;;;;;;;-1.70;69.79;100179.03;5092090;28;20506;-62
2022/01/23 05:41:33;;;;;;;10.73;9.63;;;;;;;-1.68;69.96;100180.59;5091952;28;20494;-63
2022/01/23 05:44:00;;;;;;;9.83;9.00;;;;;;;-1.67;69.79;100178.84;5092138;28;20440;-62
2022/01/23 05:46:27;;;;;;;6.83;6.40;;;;;;;-1.68;69.67;100174.53;5092409;28;20437;-62
2022/01/23 05:48:53;;;;;;;5.97;5.57;;;;;;;-1.65;69.44;100179.56;5091426;28;20433;-62
2022/01/23 05:51:22;;;;;;;8.47;7.60;;;;;;;-1.74;69.81;100180.19;5092400;28;20432;-61
2022/01/23 05:53:48;;;;;;;6.90;6.30;;;;;;;-1.67;69.84;100181.44;5091101;28;20440;-61
2022/01/23 05:56:16;;;;;;;6.77;6.27;;;;;;;-1.70;69.73;100182.47;5091545;28;20494;-61
2022/01/23 05:58:43;;;;;;;10.50;9.50;;;;;;;-1.59;70.37;100184.38;5092004;28;20936;-61
2022/01/23 06:01:10;;;;;;;11.60;8.23;;;;;;;-1.50;69.74;100179.38;5091461;28;20862;-62
2022/01/23 06:03:37;;;;;;;7.63;7.03;;;;;;;-1.44;69.35;100189.38;5091997;28;20502;-61
2022/01/23 06:06:04;;;;;;;7.03;6.43;;;;;;;-1.37;68.67;100193.25;5091714;28;20433;-61
2022/01/23 06:08:32;;;;;;;7.77;6.93;;;;;;;-1.20;67.78;100192.06;5092011;28;20441;-61
2022/01/23 06:10:59;;;;;;;6.13;5.67;;;;;;;-1.09;67.74;100195.63;5091515;28;20440;-61
2022/01/23 06:13:27;;;;;;;6.10;5.70;;;;;;;-1.05;67.62;100206.66;5090870;28;20850;-61
2022/01/23 06:15:55;;;;;;;6.20;5.53;;;;;;;-0.89;67.02;100199.44;5091054;28;20936;-62
2022/01/23 06:18:22;;;;;;;4.93;4.57;;;;;;;-0.87;66.58;100194.94;5091284;28;20433;-62
2022/01/23 06:20:48;;;;;;;5.80;5.40;;;;;;;-0.81;66.95;100194.53;5091533;28;20433;-62
2022/01/23 06:23:15;;;;;;;6.20;5.50;;;;;;;-0.51;66.07;100197.56;5091582;28;20437;-61
2022/01/23 06:25:45;;;;;;;5.83;5.40;;;;;;;-0.47;65.34;100210.31;5091253;28;20498;-62
2022/01/23 06:28:14;;;;;;;5.13;4.83;;;;;;;-0.37;64.94;100218.28;5091059;28;20502;-62
2022/01/23 06:30:41;;;;;;;5.83;5.43;;;;;;;-0.37;64.13;100220.91;5091257;28;20502;-62
2022/01/23 06:33:09;;;;;;;6.30;5.83;;;;;;;-0.22;64.45;100231.09;5091405;28;20479;-61
2022/01/23 06:35:37;;;;;;;25.50;6.70;;;;;;;-0.09;63.84;100231.88;5091941;28;20537;-62
2022/01/23 06:38:04;;;;;;;5.47;5.07;;;;;;;0.07;63.93;100231.56;5091035;28;20452;-63
2022/01/23 06:40:31;;;;;;;6.10;5.60;;;;;;;0.18;63.43;100229.03;5091514;28;20495;-63
2022/01/23 06:42:59;;;;;;;6.10;5.50;;;;;;;0.34;63.33;100232.16;5091706;28;20437;-62
2022/01/23 06:45:25;;;;;;;7.73;4.97;;;;;;;0.49;62.65;100222.34;5091278;28;20498;-63
2022/01/23 06:47:52;;;;;;;6.07;5.57;;;;;;;0.64;62.56;100226.44;5091298;28;20864;-63
2022/01/23 06:50:19;;;;;;;6.77;6.27;;;;;;;0.68;61.99;100228.69;5091316;28;20447;-62
2022/01/23 06:52:45;;;;;;;10.43;8.97;;;;;;;0.58;61.74;100230.34;5091010;28;20476;-61
2022/01/23 06:55:12;;;;;;;6.83;6.13;;;;;;;0.70;61.55;100221.59;5090911;28;20445;-63
2022/01/23 06:57:39;;;;;;;6.57;5.70;;;;;;;0.59;60.88;100229.38;5090769;28;20441;-61
2022/01/23 07:00:08;;;;;;;6.83;6.13;;;;;;;0.40;61.13;100223.88;5090959;28;20443;-61
2022/01/23 07:02:35;;;;;;;7.43;6.67;;;;;;;0.17;61.45;100219.53;5087404;28;20517;-61
2022/01/23 07:05:02;;;;;;;8.03;6.03;;;;;;;0.13;61.05;100225.94;5091014;28;20498;-61
2022/01/23 07:07:28;;;;;;;6.23;5.83;;;;;;;0.00;61.82;100215.53;5090475;28;20960;-61
2022/01/23 07:09:55;;;;;;;6.50;5.83;;;;;;;-0.03;61.39;100217.53;5090364;28;20823;-62
2022/01/23 07:12:22;;;;;;;11.40;5.87;;;;;;;-0.05;62.19;100216.81;5070472;28;20581;-62
2022/01/23 07:14:48;;;;;;;11.23;6.37;;;;;;;-0.07;62.03;100221.31;5070541;28;20488;-61
2022/01/23 07:17:16;;;;;;;5.67;5.23;;;;;;;-0.34;62.34;100226.75;5070853;28;20446;-62
2022/01/23 07:19:43;;;;;;;8.13;5.50;;;;;;;-0.25;61.74;100214.78;5080707;28;20960;-61
2022/01/23 07:22:10;;;;;;;5.73;5.23;;;;;;;-0.12;61.79;100210.38;5090817;28;20506;-61
2022/01/23 07:24:36;;;;;;;6.57;5.97;;;;;;;0.05;61.02;100220.44;5093078;28;20437;-62
2022/01/23 07:27:12;;;;;;;7.73;6.33;;;;;;;0.21;60.77;100228.81;5093731;28;21009;-61
2022/01/23 07:29:41;;;;;;;7.13;6.40;;;;;;;0.04;61.14;100230.03;5093960;28;20523;-61
2022/01/23 07:32:09;;;;;;;7.00;6.50;;;;;;;0.01;61.83;100237.25;5093766;28;20514;-61
2022/01/23 07:34:37;;;;;;;7.53;6.93;;;;;;;-0.02;61.64;100238.31;5093326;28;20473;-61
2022/01/23 07:37:04;;;;;;;8.97;7.80;;;;;;;0.01;62.12;100234.66;5093802;28;20502;-62
2022/01/23 07:39:31;;;;;;;11.37;8.17;;;;;;;-0.03;62.07;100239.25;5093365;28;21243;-62
2022/01/23 07:41:58;;;;;;;10.13;8.37;;;;;;;-0.03;61.76;100234.03;5097925;28;20436;-62
2022/01/23 07:44:24;;;;;;;10.33;8.63;;;;;;;-0.02;61.76;100243.53;5092819;28;20473;-64
2022/01/23 07:46:52;;;;;;;7.33;6.83;;;;;;;0.07;61.02;100242.03;5085966;28;20440;-64
2022/01/23 07:49:19;;;;;;;11.10;7.17;;;;;;;0.03;61.34;100248.41;5091328;28;20516;-61
2022/01/23 07:51:47;;;;;;;6.83;6.23;;;;;;;-0.03;61.40;100239.25;5091600;28;20433;-62
2022/01/23 07:54:14;;;;;;;6.40;5.87;;;;;;;0.03;61.22;100230.13;5091685;28;20530;-62
2022/01/23 07:56:42;;;;;;;7.87;7.07;;;;;;;0.23;60.49;100239.97;5090838;28;20429;-63
2022/01/23 07:59:09;;;;;;;6.63;6.13;;;;;;;0.28;59.79;100253.50;5090832;28;20451;-63
2022/01/23 08:01:38;;;;;;;10.93;8.47;;;;;;;0.36;59.71;100247.75;5090367;28;20447;-64
2022/01/23 08:04:06;;;;;;;9.17;8.27;;;;;;;0.47;60.80;100251.22;5091084;28;20473;-62
2022/01/23 08:06:33;;;;;;;9.37;8.53;;;;;;;0.49;59.46;100243.25;5085981;28;20450;-62
2022/01/23 08:09:01;;;;;;;8.87;7.97;;;;;;;0.50;59.37;100245.75;5087011;28;20457;-64
2022/01/23 08:11:28;;;;;;;9.00;7.90;;;;;;;0.46;59.14;100241.72;5086744;28;20591;-65
2022/01/23 08:13:54;;;;;;;9.77;7.43;;;;;;;0.52;58.63;100233.41;5066246;28;20469;-65
2022/01/23 08:16:21;;;;;;;9.40;7.03;;;;;;;0.47;58.73;100237.31;5067648;28;20495;-64
2022/01/23 08:18:48;;;;;;;7.87;7.27;;;;;;;0.68;58.81;100233.91;5065890;28;20805;-64
2022/01/23 08:21:14;;;;;;;7.37;6.70;;;;;;;0.61;57.47;100230.09;5068528;28;20460;-64
2022/01/23 08:23:41;;;;;;;6.53;6.03;;;;;;;0.68;57.25;100233.06;5067779;28;21012;-63
2022/01/23 08:26:10;;;;;;;7.33;6.70;;;;;;;0.86;56.52;100214.22;5070552;28;20951;-64
2022/01/23 08:28:37;;;;;;;10.77;7.23;;;;;;;1.14;55.61;100232.06;5071949;28;20442;-64
2022/01/23 08:31:04;;;;;;;15.13;6.03;;;;;;;1.43;53.75;100233.25;5072153;28;20438;-64
2022/01/23 08:33:30;;;;;;;6.40;5.73;;;;;;;1.40;52.75;100243.13;5072220;28;20523;-63
2022/01/23 08:35:57;;;;;;;6.73;6.07;;;;;;;1.37;52.63;100238.97;5071668;28;20483;-63
2022/01/23 08:38:24;;;;;;;13.13;6.00;;;;;;;1.50;52.81;100244.06;5072461;28;20443;-63
2022/01/23 08:41:49;;;;;;;6.73;6.13;;;;;;;1.84;52.15;100240.47;5072352;28;20446;-63
2022/01/23 08:43:49;;;;;;;6.27;5.87;;;;;;;2.38;50.27;100249.91;5072279;28;20791;-64
2022/01/23 08:46:16;;;;;;;9.03;6.17;;;;;;;2.67;48.82;100234.38;5072576;28;20452;-64
2022/01/23 08:48:43;;;;;;;7.93;5.87;;;;;;;2.78;46.80;100245.63;5073185;28;20438;-64
2022/01/23 08:51:10;;;;;;;6.77;5.37;;;;;;;2.86;47.52;100230.09;5072821;28;20462;-63
2022/01/23 08:53:37;;;;;;;5.73;5.23;;;;;;;2.49;47.42;100226.25;5072484;28;20469;-64
2022/01/23 08:56:04;;;;;;;5.93;5.33;;;;;;;2.73;48.35;100218.97;5072303;28;20826;-64
2022/01/23 08:58:31;;;;;;;7.90;5.07;;;;;;;2.78;46.98;100216.78;5072238;28;20446;-64
2022/01/23 09:00:59;;;;;;;5.03;4.63;;;;;;;2.71;47.83;100220.91;5072408;28;20441;-64
2022/01/23 09:03:25;;;;;;;30.67;6.73;;;;;;;2.89;46.34;100198.34;5072249;28;20446;-64
2022/01/23 09:05:52;;;;;;;5.23;4.87;;;;;;;3.46;46.04;100213.50;5072283;28;20495;-64
2022/01/23 09:08:19;;;;;;;6.23;5.63;;;;;;;3.61;44.57;100212.16;5072259;28;20438;-64
2022/01/23 09:10:54;;;;;;;11.57;5.23;;;;;;;3.29;45.73;100201.84;5081700;28;20808;-64
2022/01/23 09:13:32;;;;;;;9.10;5.70;;;;;;;3.05;46.03;100198.72;5092562;28;20468;-64
2022/01/23 09:16:01;;;;;;;6.30;5.73;;;;;;;2.91;46.20;100198.22;5093105;28;20461;-64
2022/01/23 09:18:28;;;;;;;5.97;5.23;;;;;;;2.71;45.95;100197.28;5093007;28;20437;-64
2022/01/23 09:20:54;;;;;;;5.33;4.90;;;;;;;2.69;46.21;100186.09;5092353;28;20444;-64
2022/01/23 09:23:21;;;;;;;5.97;5.40;;;;;;;2.70;46.25;100179.88;5092135;28;20802;-64
2022/01/23 09:25:48;;;;;;;6.37;5.87;;;;;;;2.74;46.20;100189.16;5092659;28;20502;-64
2022/01/23 09:28:17;;;;;;;5.83;5.10;;;;;;;2.77;46.54;100178.41;5092507;28;20804;-64
2022/01/23 09:30:49;;;;;;;7.30;4.87;;;;;;;2.47;46.37;100174.91;5092474;28;20440;-64
2022/01/23 09:33:18;;;;;;;9.53;3.97;;;;;;;2.32;46.27;100168.34;5091985;28;20868;-64
2022/01/23 09:35:44;;;;;;;12.77;4.53;;;;;;;2.18;45.93;100161.63;5092368;28;20425;-63
2022/01/23 09:38:11;;;;;;;11.00;5.87;;;;;;;2.02;46.89;100169.06;5092120;28;20503;-63
2022/01/23 09:40:40;;;;;;;5.33;4.87;;;;;;;2.18;47.89;100163.41;5092393;28;20955;-63
2022/01/23 09:43:08;;;;;;;5.63;5.23;;;;;;;2.26;45.92;100156.56;5092282;28;20441;-63
2022/01/23 09:45:36;;;;;;;5.60;5.20;;;;;;;2.55;44.92;100167.22;5092161;28;20445;-63
2022/01/23 09:48:04;;;;;;;5.53;5.13;;;;;;;2.66;44.91;100165.34;5091803;28;20441;-63
2022/01/23 09:50:33;;;;;;;6.17;4.47;;;;;;;2.74;44.56;100162.91;5091526;28;20433;-63
2022/01/23 09:53:01;;;;;;;5.93;5.10;;;;;;;3.03;44.60;100158.63;5091810;28;20472;-63
2022/01/23 09:55:29;;;;;;;6.77;5.53;;;;;;;3.20;43.91;100152.78;5092051;28;20581;-63
2022/01/23 09:57:56;;;;;;;4.70;4.30;;;;;;;3.27;42.51;100151.25;5092084;28;20425;-64
2022/01/23 10:00:26;;;;;;;7.87;6.00;;;;;;;3.21;42.96;100136.06;5091843;28;20441;-63
2022/01/23 10:02:53;;;;;;;6.50;5.90;;;;;;;3.27;42.15;100138.13;5091543;28;20855;-63
2022/01/23 10:05:21;;;;;;;4.77;4.37;;;;;;;3.36;41.13;100133.88;5091320;28;20441;-63
2022/01/23 10:07:49;;;;;;;9.23;4.07;;;;;;;3.42;41.21;100115.78;5092121;28;20433;-63
2022/01/23 10:10:21;;;;;;;5.00;4.50;;;;;;;3.24;40.96;100114.81;5091677;28;20429;-63
2022/01/23 10:12:50;;;;;;;4.97;4.47;;;;;;;3.40;40.90;100104.63;5091326;28;20494;-63
2022/01/23 10:15:18;;;;;;;5.03;4.73;;;;;;;3.64;41.13;100112.91;5091857;28;20433;-63
2022/01/23 10:17:45;;;;;;;7.40;4.87;;;;;;;3.41;40.78;100103.63;5091602;28;20523;-63
2022/01/23 10:20:13;;;;;;;5.20;4.90;;;;;;;3.53;41.72;100099.94;5092025;28;20506;-64
2022/01/23 10:22:43;;;;;;;5.33;4.80;;;;;;;3.82;40.23;100100.78;5091614;28;20490;-64
2022/01/23 10:25:13;;;;;;;6.87;5.63;;;;;;;3.49;41.32;100097.69;5091537;28;20467;-64
2022/01/23 10:28:01;;;;;;;5.27;4.80;;;;;;;3.40;40.51;100099.38;5092762;28;20426;-64
2022/01/23 10:30:31;;;;;;;5.93;5.33;;;;;;;3.66;40.05;100095.22;5092026;28;20491;-64
2022/01/23 10:33:00;;;;;;;8.57;5.23;;;;;;;3.66;39.66;100095.22;5091507;28;20494;-64
2022/01/23 10:35:27;;;;;;;12.67;5.33;;;;;;;3.32;39.42;100095.75;5091959;28;20481;-64
2022/01/23 10:37:55;;;;;;;5.87;5.37;;;;;;;3.05;40.91;100098.16;5092153;28;20195;-64
2022/01/23 10:40:34;;;;;;;11.67;5.73;;;;;;;3.19;39.79;100095.97;5091539;28;21015;-64
2022/01/23 10:48:40;;;;;;;6.47;5.83;;;;;;;2.75;41.64;100083.31;5092003;28;20401;-64
2022/01/23 10:51:36;;;;;;;13.67;8.30;;;;;;;2.80;41.55;100083.72;5091615;28;20426;-64
2022/01/23 10:54:07;;;;;;;7.00;5.37;;;;;;;2.89;40.86;100080.31;5091408;28;20465;-64
2022/01/23 10:56:39;;;;;;;15.03;5.40;;;;;;;3.08;41.06;100072.50;5091723;28;20433;-64
2022/01/23 10:59:09;;;;;;;5.90;5.50;;;;;;;3.27;41.46;100083.00;5093398;28;20816;-64
2022/01/23 11:01:36;;;;;;;7.67;6.43;;;;;;;3.59;41.38;100077.53;5095492;28;20807;-64
2022/01/23 11:04:05;;;;;;;7.97;7.17;;;;;;;3.57;40.88;100082.09;5095014;28;20474;-64
2022/01/23 11:06:32;;;;;;;7.07;6.43;;;;;;;3.50;41.25;100073.94;5095053;28;20509;-64
2022/01/23 11:09:08;;;;;;;5.97;5.57;;;;;;;3.06;42.31;100079.66;5095075;28;20903;-64
2022/01/23 11:11:46;;;;;;;6.40;5.87;;;;;;;2.92;43.54;100072.16;5094955;28;20812;-64
2022/01/23 11:19:46;;;;;;;8.73;5.40;;;;;;;2.58;42.86;100057.66;5095507;28;20432;-64
2022/01/23 11:22:16;;;;;;;6.37;5.87;;;;;;;2.64;43.58;100059.78;5094816;28;20440;-63
2022/01/23 11:24:47;;;;;;;8.07;5.67;;;;;;;2.50;43.47;100054.91;5095933;28;20486;-64
2022/01/23 11:27:16;;;;;;;10.43;5.33;;;;;;;2.38;44.00;100045.47;5094942;28;20429;-63
2022/01/23 11:30:01;;;;;;;7.37;6.20;;;;;;;2.45;43.66;100051.81;5095690;28;20433;-64
2022/01/23 11:32:34;;;;;;;11.37;6.43;;;;;;;2.44;43.50;100042.31;5094551;28;20433;-64
2022/01/23 11:35:06;;;;;;;12.30;6.93;;;;;;;2.60;43.36;100050.50;5095130;28;20491;-64
2022/01/23 11:37:33;;;;;;;7.40;6.67;;;;;;;2.63;42.72;100049.41;5095031;28;20437;-64
2022/01/23 11:40:06;;;;;;;6.60;6.00;;;;;;;2.74;43.41;100050.13;5095216;28;20433;-64
2022/01/23 11:53:50;;;;;;;8.23;5.43;;;;;;;2.57;43.08;100039.47;5092748;28;20984;-64
2022/01/23 11:56:35;;;;;;;15.27;6.47;;;;;;;2.68;43.04;100053.31;5094490;28;20441;-64
2022/01/23 11:59:17;;;;;;;5.70;5.10;;;;;;;2.51;42.84;100043.44;5093034;28;20433;-64
2022/01/23 12:01:48;;;;;;;18.80;5.70;;;;;;;2.49;43.71;100042.72;5093893;28;20924;-64
2022/01/23 12:04:18;;;;;;;10.90;7.00;;;;;;;2.47;43.66;100049.91;5094292;28;20430;-64
2022/01/23 12:07:05;;;;;;;9.63;8.40;;;;;;;2.50;43.66;100047.03;5094064;28;20440;-64
2022/01/23 12:09:31;;;;;;;10.80;6.77;;;;;;;2.64;44.04;100054.53;5093836;28;20499;-64
2022/01/23 12:12:08;;;;;;;7.70;7.03;;;;;;;2.53;43.53;100033.66;5093183;28;20449;-64
2022/01/23 12:17:41;;;;;;;7.50;6.80;;;;;;;2.29;43.85;100046.22;5093910;28;20409;-64
2022/01/23 12:20:09;;;;;;;6.50;5.97;;;;;;;2.29;45.00;100054.09;5094076;28;20459;-64
2022/01/23 12:22:55;;;;;;;6.50;5.90;;;;;;;2.22;44.63;100059.97;5093738;28;20425;-63
2022/01/23 12:25:30;;;;;;;8.13;7.33;;;;;;;2.12;45.32;100054.69;5093758;28;20921;-64
2022/01/23 12:28:17;;;;;;;6.53;5.97;;;;;;;2.25;45.41;100050.06;5094648;28;20432;-64
2022/01/23 12:30:46;;;;;;;5.97;5.50;;;;;;;2.34;44.93;100054.56;5094066;28;20509;-64
2022/01/23 12:33:46;;;;;;;6.53;6.00;;;;;;;2.39;45.09;100049.75;5093689;28;20494;-64
2022/01/23 12:36:24;;;;;;;7.27;6.60;;;;;;;2.40;45.12;100054.00;5093834;28;20441;-64
2022/01/23 12:38:53;;;;;;;12.77;9.77;;;;;;;2.25;45.87;100044.81;5093406;28;20417;-64
2022/01/23 12:41:29;;;;;;;9.43;7.03;;;;;;;2.27;45.35;100048.16;5093575;28;20441;-64
2022/01/23 12:43:59;;;;;;;7.30;6.73;;;;;;;2.26;45.04;100051.75;5092235;28;20444;-64
2022/01/23 12:46:33;;;;;;;7.37;6.20;;;;;;;2.19;46.08;100047.97;5093118;28;20514;-63
2022/01/23 12:49:16;;;;;;;7.20;6.53;;;;;;;2.17;46.13;100042.00;5091929;28;20432;-64
2022/01/23 12:51:43;;;;;;;8.73;6.83;;;;;;;2.17;46.51;100054.31;5090274;28;20433;-64
2022/01/23 12:54:26;;;;;;;6.30;5.80;;;;;;;2.17;46.09;100051.69;5087304;28;21013;-64
2022/01/23 12:56:53;;;;;;;7.23;6.40;;;;;;;2.25;46.70;100046.63;5083824;28;20702;-64
2022/01/23 12:59:30;;;;;;;8.00;7.20;;;;;;;2.22;46.66;100052.97;5085790;28;20858;-63
2022/01/23 13:02:05;;;;;;;9.00;7.60;;;;;;;2.12;47.30;100044.19;5090989;28;20431;-63
2022/01/23 13:04:39;;;;;;;6.80;6.30;;;;;;;2.10;47.73;100043.50;5084743;28;20433;-64
2022/01/23 13:07:14;;;;;;;8.53;6.80;;;;;;;2.10;48.14;100045.28;5084286;28;20433;-63
2022/01/23 13:09:48;;;;;;;9.27;8.37;;;;;;;2.28;48.45;100043.75;5086247;28;20437;-64
2022/01/23 13:12:30;;;;;;;11.53;9.47;;;;;;;2.10;48.98;100051.38;5083323;28;20457;-63
2022/01/23 13:15:14;;;;;;;8.93;8.03;;;;;;;2.08;49.14;100049.84;5083944;28;20465;-62
2022/01/23 13:17:53;;;;;;;6.90;6.33;;;;;;;1.96;48.88;100049.06;5086041;28;20439;-63
2022/01/23 13:32:09;;;;;;;8.87;7.40;;;;;;;1.53;51.27;100060.59;5084357;28;20975;-63
2022/01/23 13:34:41;;;;;;;9.07;7.53;;;;;;;1.48;51.39;100061.00;5091978;28;20484;-63
2022/01/23 13:37:10;;;;;;;11.13;7.83;;;;;;;1.47;51.92;100061.94;5091979;28;20436;-64
2022/01/23 13:39:44;;;;;;;8.63;6.57;;;;;;;1.37;51.77;100066.25;5091808;28;20441;-64
2022/01/23 13:42:44;;;;;;;6.23;5.53;;;;;;;1.31;51.90;100053.66;5092163;28;20423;-64
2022/01/23 13:53:51;;;;;;;7.40;6.77;;;;;;;1.45;51.90;100074.31;5087729;28;20413;-64
2022/01/23 13:59:11;;;;;;;8.77;7.13;;;;;;;1.54;51.28;100075.34;5084791;28;20473;-64
2022/01/23 14:01:50;;;;;;;6.50;5.90;;;;;;;1.53;50.97;100071.91;5085717;28;20895;-64
2022/01/23 14:04:18;;;;;;;8.23;7.43;;;;;;;1.47;51.14;100076.81;5084915;28;20455;-64
2022/01/23 14:06:46;;;;;;;7.30;6.57;;;;;;;1.47;50.69;100071.59;5085639;28;20501;-64
2022/01/23 14:09:16;;;;;;;6.50;5.93;;;;;;;1.24;50.24;100073.44;5085229;28;20437;-64
2022/01/23 14:11:43;;;;;;;7.77;6.43;;;;;;;1.28;50.34;100074.84;5087069;28;20512;-64
2022/01/23 14:14:11;;;;;;;6.50;6.10;;;;;;;1.43;49.78;100080.63;5085917;28;20468;-64
2022/01/23 14:16:38;;;;;;;7.83;6.23;;;;;;;1.23;49.91;100074.41;5086964;28;20498;-63
2022/01/23 14:19:23;;;;;;;5.93;5.43;;;;;;;1.28;50.30;100082.69;5088760;28;20463;-64
2022/01/23 14:21:52;;;;;;;6.50;6.10;;;;;;;1.36;49.99;100079.47;5087111;28;20463;-64